Aeroporto :
LOGIN :

Iscrizione | Disclaimer

   EN    FR    IT 

 










Sommario :    VFR   VFR Marginale   IFR   IFR Intensivo   IFR Molto Intensivo
Visibilità : 
Base nubi : 
>= 8 km
>= 3000ft
5 / 8 km
1000 / 3000 ft
1500m / 5 km
500 / 1000 ft
800 / 1500m
200 / 500 ft
< 800m
< 200 ft
Simboli :   Temporali  Nebbia  Neve Forte  Precipitazioni Forti  Vento > 20 kt
SIGMETs :   Varie  Temporali  Ghiacco  Turbolenza  Onda orograficha  Ceneri Vulcaniche






- Altitudine del aeroporto : 181 ft


ESIB - Satenas AB

ULTIMO METAR :
  • 171520Z AUTO 00000KT 9999 FEW017/// BKN023/// OVC031/// 06/06 Q1015

METARs OBSOLETI :
  • 171450Z AUTO 00000KT 9999 SCT008/// BKN012/// OVC026/// 06/06 Q1015
  • 171420Z AUTO 24002KT 9999 BKN008/// OVC010/// 06/06 Q1015
  • 171350Z AUTO 23004KT 9999 OVC009/// 06/06 Q1014
  • 171320Z AUTO 23006KT 9999 OVC010/// 06/06 Q1014
  • 171250Z AUTO 23008KT 9999 OVC011/// 06/06 Q1014

Previsioni scadute.



MetMap, La meteo Aeronautica in un colpo d'occhio ! - Copyright ORBIFLY Dicembre 2007 - Disclaimer

ORBIFLY MET'MAP TEAM :

Programmazione e sviluppo : Alexandra Zaïnal
Concezione e sviluppo : Baudouin d'Aumeries
Co-Programmazione e sviluppo : Marc-Olivier Méhu
Supporto tecnico e logistico : Manuel Goepfert
Aiuto per la traduzione : Arnaldo La Scala

Contatto : metmap@orbifly.com




FONTI E CREDITI :

   NOAA